Time;durP1;ratioP1;P1;durP2;ratioP2;P2;SDS_P1;SDS_P2;PMS_P1;PMS_P2;Temp;Humidity;BMP_temperature;BMP_pressure;BME280_temperature;BME280_humidity;BME280_pressure;Samples;Min_cycle;Max_cycle;Signal;HPM_P1;HPM_P2
2020/12/29 00:00:16;;;;;;;2.77;2.37;;;;;;;0.17;100.00;100713.44;1788716;78;21125;-49
2020/12/29 00:02:43;;;;;;;0.93;0.85;;;;;;;0.16;100.00;100710.45;1759573;81;21150;-49
2020/12/29 00:05:11;;;;;;;2.75;1.45;;;;;;;0.15;100.00;100704.78;1759549;81;21699;-51
2020/12/29 00:07:53;;;;;;;0.40;0.40;;;;;;;0.14;100.00;100696.39;1759624;81;21162;-48
2020/12/29 00:10:10;;;;;;;0.57;0.57;;;;;;;0.13;100.00;100696.09;1785388;78;21126;-50
2020/12/29 00:12:37;;;;;;;0.20;0.20;;;;;;;0.12;100.00;100697.11;1788954;80;21142;-49
2020/12/29 00:15:05;;;;;;;1.72;1.65;;;;;;;0.10;100.00;100689.27;1788988;78;21109;-51
2020/12/29 00:17:32;;;;;;;1.17;0.30;;;;;;;0.10;100.00;100688.42;1794446;79;21161;-49
2020/12/29 00:20:00;;;;;;;0.85;0.55;;;;;;;0.08;100.00;100693.20;1794410;78;21129;-49
2020/12/29 00:22:27;;;;;;;0.62;0.62;;;;;;;0.08;100.00;100678.41;1794655;79;21145;-49
2020/12/29 00:24:55;;;;;;;2.02;1.55;;;;;;;0.07;100.00;100675.39;1794519;78;21113;-49
2020/12/29 00:27:22;;;;;;;0.10;0.10;;;;;;;0.08;100.00;100677.07;1759433;81;21568;-50
2020/12/29 00:29:50;;;;;;;0.10;0.10;;;;;;;0.05;100.00;100674.28;1740576;81;21252;-49
2020/12/29 00:32:19;;;;;;;5.35;1.47;;;;;;;0.04;100.00;100664.55;1727703;82;21624;-51
2020/12/29 00:34:49;;;;;;;0.10;0.10;;;;;;;0.03;100.00;100660.22;1740629;81;21428;-49
2020/12/29 00:37:16;;;;;;;1.70;0.28;;;;;;;0.02;100.00;100657.20;1740708;82;21138;-49
2020/12/29 00:39:44;;;;;;;6.58;1.75;;;;;;;0.01;100.00;100656.08;1740633;81;21145;-49
2020/12/29 00:42:11;;;;;;;0.62;0.62;;;;;;;-0.02;100.00;100654.11;1740578;82;21185;-50
2020/12/29 00:44:40;;;;;;;0.17;0.17;;;;;;;-0.03;100.00;100646.23;1740534;81;21184;-49
2020/12/29 00:47:08;;;;;;;1.12;0.78;;;;;;;-0.05;100.00;100644.27;1759447;81;21931;-49
2020/12/29 00:49:37;;;;;;;0.70;0.47;;;;;;;-0.05;100.00;100637.06;1759443;80;21135;-52
2020/12/29 00:52:06;;;;;;;3.10;0.60;;;;;;;-0.05;100.00;100626.31;1731067;81;21152;-50
2020/12/29 00:54:35;;;;;;;2.08;0.35;;;;;;;-0.06;100.00;100620.61;1758244;80;21191;-51
2020/12/29 00:57:03;;;;;;;0.28;0.28;;;;;;;-0.07;100.00;100621.66;1759483;81;21237;-50
2020/12/29 00:59:31;;;;;;;0.37;0.08;;;;;;;-0.08;100.00;100617.30;1715378;82;21177;-52
2020/12/29 01:01:59;;;;;;;0.57;0.55;;;;;;;-0.09;100.00;100611.62;1759478;81;21134;-52
2020/12/29 01:04:26;;;;;;;0.20;0.20;;;;;;;-0.09;100.00;100614.31;1755974;80;21135;-51
2020/12/29 01:06:55;;;;;;;0.60;0.60;;;;;;;-0.08;100.00;100609.77;1757591;81;21179;-51
2020/12/29 01:09:23;;;;;;;0.33;0.33;;;;;;;-0.08;100.00;100604.39;1757085;81;21691;-50
2020/12/29 01:11:52;;;;;;;0.28;0.28;;;;;;;-0.09;100.00;100594.17;1757233;81;21574;-52
2020/12/29 01:14:20;;;;;;;0.68;0.68;;;;;;;-0.09;100.00;100596.85;1757224;81;21144;-52
2020/12/29 01:17:06;;;;;;;0.45;0.45;;;;;;;-0.06;100.00;100580.31;1887492;76;29509;-52
2020/12/29 01:19:33;;;;;;;2.15;1.67;;;;;;;-0.10;100.00;100597.05;1845981;77;21080;-51
2020/12/29 01:22:01;;;;;;;0.15;0.15;;;;;;;-0.12;100.00;100592.42;1825087;78;21146;-50
2020/12/29 01:24:28;;;;;;;0.53;0.53;;;;;;;-0.11;100.00;100595.41;1825029;77;21088;-50
2020/12/29 01:26:57;;;;;;;0.75;0.72;;;;;;;-0.11;100.00;100589.52;1825083;78;21063;-50
2020/12/29 01:29:24;;;;;;;0.90;0.57;;;;;;;-0.12;100.00;100575.78;1825063;77;21087;-51
2020/12/29 01:31:52;;;;;;;0.23;0.23;;;;;;;-0.13;100.00;100583.52;1824978;78;21059;-53
2020/12/29 01:34:20;;;;;;;0.93;0.72;;;;;;;-0.13;100.00;100584.86;1824955;77;21652;-52
2020/12/29 01:36:48;;;;;;;0.30;0.30;;;;;;;-0.13;100.00;100588.06;1824953;78;21166;-53
2020/12/29 01:39:15;;;;;;;0.10;0.10;;;;;;;-0.12;100.00;100587.05;1824877;77;21474;-52
2020/12/29 01:41:43;;;;;;;0.50;0.50;;;;;;;-0.11;100.00;100579.29;1825057;78;21119;-52
2020/12/29 01:44:18;;;;;;;0.47;0.42;;;;;;;-0.13;100.00;100580.83;1824973;77;21099;-52
2020/12/29 01:46:48;;;;;;;2.30;0.82;;;;;;;-0.13;100.00;100568.73;1825169;78;21747;-51
2020/12/29 01:49:17;;;;;;;2.83;0.93;;;;;;;-0.14;100.00;100565.75;1825024;77;21126;-52
2020/12/29 01:51:45;;;;;;;0.78;0.78;;;;;;;-0.14;100.00;100573.00;1825071;78;21134;-50
2020/12/29 01:54:12;;;;;;;1.07;1.07;;;;;;;-0.14;100.00;100576.50;1824988;77;21076;-52
2020/12/29 01:56:40;;;;;;;0.40;0.40;;;;;;;-0.14;100.00;100568.44;1824753;78;21127;-52
2020/12/29 01:59:11;;;;;;;0.20;0.20;;;;;;;-0.15;100.00;100556.03;1824998;77;21154;-52
2020/12/29 02:01:41;;;;;;;1.00;1.00;;;;;;;-0.15;100.00;100544.46;1794286;78;21577;-52
2020/12/29 02:04:09;;;;;;;0.93;0.30;;;;;;;-0.15;100.00;100571.32;1825082;77;21244;-52
2020/12/29 02:06:38;;;;;;;2.02;0.33;;;;;;;-0.16;100.00;100555.73;1825043;78;21122;-52
2020/12/29 02:09:09;;;;;;;1.00;1.00;;;;;;;-0.16;100.00;100555.73;1824809;77;21127;-51
2020/12/29 02:11:37;;;;;;;0.47;0.47;;;;;;;-0.17;100.00;100563.48;1824722;78;21418;-52
2020/12/29 02:14:08;;;;;;;6.87;0.42;;;;;;;-0.16;100.00;100567.81;1824576;77;21099;-52
2020/12/29 02:16:40;;;;;;;0.33;0.33;;;;;;;-0.16;100.00;100565.66;1808175;78;21097;-52
2020/12/29 02:19:09;;;;;;;0.65;0.65;;;;;;;-0.17;100.00;100572.89;1800227;78;21098;-52
2020/12/29 02:21:37;;;;;;;7.10;1.57;;;;;;;-0.17;100.00;100570.20;1800293;79;21133;-53
2020/12/29 02:24:05;;;;;;;0.40;0.40;;;;;;;-0.16;100.00;100569.68;1800344;78;21144;-52
2020/12/29 02:26:34;;;;;;;0.85;0.85;;;;;;;-0.16;100.00;100567.00;1764931;81;21135;-52
2020/12/29 02:29:05;;;;;;;5.10;0.85;;;;;;;-0.16;100.00;100561.63;1786035;78;21200;-52
2020/12/29 02:31:33;;;;;;;0.77;0.77;;;;;;;-0.17;100.00;100551.41;1786536;80;21441;-53
2020/12/29 02:34:01;;;;;;;2.35;2.25;;;;;;;-0.15;100.00;100552.00;1786314;78;21239;-52
2020/12/29 02:36:29;;;;;;;1.15;0.62;;;;;;;-0.15;100.00;100551.17;1786464;80;21508;-52
2020/12/29 02:38:57;;;;;;;0.20;0.20;;;;;;;-0.16;100.00;100541.48;1786416;78;21122;-52
2020/12/29 02:41:24;;;;;;;4.53;1.35;;;;;;;-0.16;100.00;100547.67;1786498;80;21106;-53
2020/12/29 02:43:52;;;;;;;0.08;0.08;;;;;;;-0.16;100.00;100540.13;1786514;78;21107;-52
2020/12/29 02:46:20;;;;;;;3.72;0.57;;;;;;;-0.15;100.00;100546.63;1786574;80;21102;-53
2020/12/29 02:48:47;;;;;;;0.30;0.30;;;;;;;-0.14;100.00;100550.16;1786682;78;21171;-53
2020/12/29 02:51:15;;;;;;;0.95;0.53;;;;;;;-0.15;100.00;100543.94;1786650;80;21142;-52
2020/12/29 02:53:42;;;;;;;0.78;0.78;;;;;;;-0.14;100.00;100536.20;1786470;78;21115;-53
2020/12/29 02:56:10;;;;;;;0.53;0.25;;;;;;;-0.14;100.00;100532.18;1786570;80;21138;-52
2020/12/29 02:58:38;;;;;;;0.57;0.57;;;;;;;-0.13;100.00;100540.53;1786658;80;21137;-53
2020/12/29 03:01:05;;;;;;;1.15;1.00;;;;;;;-0.13;100.00;100544.56;1786640;80;21192;-53
2020/12/29 03:03:33;;;;;;;0.35;0.35;;;;;;;-0.13;100.00;100542.40;1786495;80;21138;-52
2020/12/29 03:06:00;;;;;;;1.07;0.65;;;;;;;-0.13;100.00;100539.19;1786570;78;21433;-52
2020/12/29 03:08:28;;;;;;;2.27;1.10;;;;;;;-0.13;100.00;100533.82;1786408;80;21130;-52
2020/12/29 03:10:55;;;;;;;2.30;0.98;;;;;;;-0.13;100.00;100529.79;1786229;78;21573;-52
2020/12/29 03:13:24;;;;;;;0.90;0.90;;;;;;;-0.13;100.00;100523.08;1786307;80;21098;-52
2020/12/29 03:15:52;;;;;;;0.85;0.82;;;;;;;-0.12;100.00;100518.55;1786035;78;21133;-51
2020/12/29 03:18:19;;;;;;;0.62;0.62;;;;;;;-0.13;100.00;100512.33;1786308;80;21150;-52
2020/12/29 03:20:47;;;;;;;0.80;0.80;;;;;;;-0.13;100.00;100501.59;1786386;78;21429;-52
2020/12/29 03:23:14;;;;;;;2.52;0.47;;;;;;;-0.12;100.00;100504.59;1786218;80;21106;-52
2020/12/29 03:25:42;;;;;;;0.80;0.80;;;;;;;-0.12;100.00;100497.88;1786196;78;21146;-53
2020/12/29 03:28:09;;;;;;;1.55;0.82;;;;;;;-0.11;100.00;100512.95;1786295;80;21185;-52
2020/12/29 03:30:37;;;;;;;0.10;0.10;;;;;;;-0.10;100.00;100517.31;1786573;78;21237;-52
2020/12/29 03:33:05;;;;;;;0.42;0.42;;;;;;;-0.10;100.00;100511.09;1786550;80;21560;-52
2020/12/29 03:35:32;;;;;;;0.78;0.78;;;;;;;-0.09;100.00;100512.76;1786483;78;21107;-52
2020/12/29 03:38:00;;;;;;;0.80;0.80;;;;;;;-0.10;100.00;100510.59;1786569;80;21141;-52
2020/12/29 03:40:28;;;;;;;1.02;0.62;;;;;;;-0.08;100.00;100511.71;1786407;78;21110;-52
2020/12/29 03:42:55;;;;;;;0.62;0.62;;;;;;;-0.08;100.00;100515.74;1786431;80;21405;-52
2020/12/29 03:45:23;;;;;;;1.98;0.60;;;;;;;-0.10;100.00;100511.94;1786541;78;21087;-52
2020/12/29 03:47:50;;;;;;;0.40;0.40;;;;;;;-0.09;100.00;100516.27;1786727;80;21513;-52
2020/12/29 03:50:18;;;;;;;0.98;0.42;;;;;;;-0.08;100.00;100516.56;1786513;78;21157;-52
2020/12/29 03:52:46;;;;;;;0.90;0.90;;;;;;;-0.06;100.00;100520.39;1786655;80;21122;-52
2020/12/29 03:55:14;;;;;;;1.90;0.40;;;;;;;-0.05;100.00;100513.98;1786644;78;21473;-52
2020/12/29 03:57:43;;;;;;;2.52;1.22;;;;;;;-0.06;100.00;100505.09;1786475;80;21114;-52
2020/12/29 04:00:10;;;;;;;1.47;0.45;;;;;;;-0.06;100.00;100514.50;1786504;78;21106;-52
2020/12/29 04:02:39;;;;;;;1.77;0.80;;;;;;;-0.06;100.00;100507.78;1786467;80;21145;-53
2020/12/29 04:05:08;;;;;;;1.65;1.55;;;;;;;-0.05;100.00;100493.34;1786472;78;21153;-52
2020/12/29 04:07:36;;;;;;;0.90;0.90;;;;;;;-0.06;100.00;100483.60;1786304;80;21137;-52
2020/12/29 04:10:04;;;;;;;1.65;0.35;;;;;;;-0.04;100.00;100483.41;1786189;78;21122;-51
2020/12/29 04:12:33;;;;;;;2.22;1.47;;;;;;;-0.05;100.00;100479.91;1786224;80;21146;-51
2020/12/29 04:15:00;;;;;;;0.15;0.15;;;;;;;-0.06;100.00;100497.03;1786187;78;21154;-52
2020/12/29 04:17:35;;;;;;;0.62;0.62;;;;;;;-0.04;100.00;100500.34;1786046;80;21137;-51
2020/12/29 04:20:04;;;;;;;0.10;0.10;;;;;;;-0.04;100.00;100496.84;1786248;78;21109;-52
2020/12/29 04:22:33;;;;;;;0.60;0.60;;;;;;;-0.04;100.00;100499.00;1786131;80;21109;-52
2020/12/29 04:25:01;;;;;;;0.42;0.42;;;;;;;-0.04;100.00;100490.12;1786119;78;21099;-52
2020/12/29 04:27:28;;;;;;;0.23;0.23;;;;;;;-0.05;100.00;100494.68;1786177;80;21541;-50
2020/12/29 04:29:56;;;;;;;1.10;0.50;;;;;;;-0.04;100.00;100495.50;1786164;78;21133;-51
2020/12/29 04:32:24;;;;;;;0.30;0.30;;;;;;;-0.03;100.00;100488.55;1786295;80;21545;-52
2020/12/29 04:34:52;;;;;;;0.85;0.85;;;;;;;-0.03;100.00;100485.86;1786225;78;21125;-52
2020/12/29 04:37:21;;;;;;;0.35;0.35;;;;;;;-0.03;100.00;100492.58;1784720;80;21604;-52
2020/12/29 04:39:49;;;;;;;0.93;0.78;;;;;;;-0.03;100.00;100488.55;1786565;78;21248;-51
2020/12/29 04:42:16;;;;;;;0.00;0.00;;;;;;;-0.03;100.00;100480.50;1786434;80;21181;-53
2020/12/29 04:44:44;;;;;;;0.25;0.25;;;;;;;-0.03;100.00;100479.15;1786519;78;21635;-52
2020/12/29 04:47:11;;;;;;;0.10;0.10;;;;;;;-0.01;100.00;100485.15;1786564;80;21114;-52
2020/12/29 04:49:39;;;;;;;2.60;1.65;;;;;;;-0.01;100.00;100475.74;1786451;78;21130;-52
2020/12/29 04:52:08;;;;;;;0.13;0.13;;;;;;;-0.02;100.00;100468.73;1786440;80;21193;-53
2020/12/29 04:54:39;;;;;;;0.78;0.47;;;;;;;-0.01;100.00;100477.09;1786499;78;21166;-52
2020/12/29 04:57:09;;;;;;;0.10;0.10;;;;;;;0.01;100.00;100481.44;1786511;80;21173;-51
2020/12/29 04:59:37;;;;;;;0.53;0.53;;;;;;;0.01;100.00;100482.78;1786590;78;21154;-52
2020/12/29 05:02:06;;;;;;;0.88;0.62;;;;;;;0.02;100.00;100484.42;1786571;80;21118;-53
2020/12/29 05:04:34;;;;;;;1.20;1.05;;;;;;;0.03;100.00;100496.84;1786527;78;21118;-51
2020/12/29 05:07:01;;;;;;;1.00;0.28;;;;;;;0.04;100.00;100503.86;1786415;80;21133;-51
2020/12/29 05:09:29;;;;;;;1.35;0.47;;;;;;;0.05;100.00;100510.87;1786202;78;21129;-51
2020/12/29 05:11:59;;;;;;;0.90;0.90;;;;;;;0.06;100.00;100513.88;1786072;80;21125;-51
2020/12/29 05:14:29;;;;;;;0.90;0.90;;;;;;;0.07;100.00;100522.23;1786167;78;21572;-51
2020/12/29 05:16:57;;;;;;;0.57;0.57;;;;;;;0.07;100.00;100529.78;1784928;80;21173;-52
2020/12/29 05:19:24;;;;;;;3.30;1.65;;;;;;;0.08;100.00;100533.31;1760043;80;21625;-51
2020/12/29 05:21:52;;;;;;;0.10;0.10;;;;;;;0.09;100.00;100529.58;1759963;81;21454;-51
2020/12/29 05:24:22;;;;;;;1.60;1.37;;;;;;;0.10;100.00;100533.41;1755295;80;21103;-52
2020/12/29 05:26:55;;;;;;;0.20;0.20;;;;;;;0.11;100.00;100504.67;1759996;81;21154;-50
2020/12/29 05:29:24;;;;;;;0.47;0.35;;;;;;;0.13;100.00;100490.52;1759922;80;21600;-52
2020/12/29 05:31:52;;;;;;;1.65;1.20;;;;;;;0.11;100.00;100492.06;1760002;81;21158;-50
2020/12/29 05:34:28;;;;;;;0.88;0.50;;;;;;;0.12;100.00;100482.95;1760271;80;21142;-51
2020/12/29 05:36:58;;;;;;;1.17;1.02;;;;;;;0.13;100.00;100485.14;1760309;81;21221;-50
2020/12/29 05:39:29;;;;;;;0.62;0.62;;;;;;;0.14;100.00;100480.06;1760215;80;21569;-52
2020/12/29 05:41:57;;;;;;;0.53;0.53;;;;;;;0.14;100.00;100482.75;1761796;80;21146;-51
2020/12/29 05:44:29;;;;;;;2.35;1.75;;;;;;;0.14;100.00;100485.44;1786917;78;21147;-51
2020/12/29 05:47:01;;;;;;;1.30;1.17;;;;;;;0.14;100.00;100470.13;1786299;80;21158;-51
2020/12/29 05:49:28;;;;;;;0.57;0.57;;;;;;;0.14;100.00;100466.63;1749299;82;21163;-52
2020/12/29 05:51:56;;;;;;;0.13;0.13;;;;;;;0.15;100.00;100479.87;1768508;80;21172;-52
2020/12/29 05:54:26;;;;;;;0.90;0.90;;;;;;;0.17;100.00;100483.67;1787706;78;21154;-52
2020/12/29 05:56:54;;;;;;;1.12;1.00;;;;;;;0.17;100.00;100476.95;1787838;80;21113;-51
2020/12/29 05:59:22;;;;;;;6.60;1.85;;;;;;;0.18;100.00;100486.68;1766179;81;21116;-52
2020/12/29 06:01:51;;;;;;;0.80;0.80;;;;;;;0.19;100.00;100482.94;1787021;80;21122;-50
2020/12/29 06:04:20;;;;;;;0.53;0.50;;;;;;;0.20;100.00;100488.65;1787993;80;21142;-50
2020/12/29 06:06:48;;;;;;;0.17;0.17;;;;;;;0.20;100.00;100484.61;1754685;81;21159;-52
2020/12/29 06:09:18;;;;;;;0.65;0.65;;;;;;;0.21;100.00;100498.34;1767355;81;21198;-50
2020/12/29 06:11:54;;;;;;;0.55;0.55;;;;;;;0.21;100.00;100488.94;1787035;80;21125;-52
2020/12/29 06:14:25;;;;;;;1.07;1.07;;;;;;;0.21;100.00;100478.19;1770517;80;21136;-51
2020/12/29 06:16:54;;;;;;;0.20;0.20;;;;;;;0.21;100.00;100468.78;1763922;80;21123;-52
2020/12/29 06:19:29;;;;;;;0.20;0.20;;;;;;;0.22;100.00;100459.67;1771648;80;21462;-52
2020/12/29 06:22:11;;;;;;;0.30;0.30;;;;;;;0.21;100.00;100452.13;1767202;81;21178;-52
2020/12/29 06:24:43;;;;;;;0.00;0.00;;;;;;;0.22;100.00;100452.95;1757512;80;21152;-51
2020/12/29 06:27:12;;;;;;;0.65;0.50;;;;;;;0.22;100.00;100477.14;1787700;80;21955;-52
2020/12/29 06:29:43;;;;;;;0.28;0.28;;;;;;;0.21;100.00;100477.66;1787735;78;21533;-51
2020/12/29 06:32:16;;;;;;;3.85;0.55;;;;;;;0.23;100.00;100469.93;1787763;80;21525;-51
2020/12/29 06:34:44;;;;;;;0.78;0.78;;;;;;;0.21;100.00;100471.47;1787582;80;21165;-52
2020/12/29 06:37:40;;;;;;;0.33;0.33;;;;;;;0.21;100.00;100460.20;1782846;80;21343;-51
2020/12/29 06:40:18;;;;;;;0.20;0.20;;;;;;;0.26;100.00;100470.32;1825073;76;29081;-50
2020/12/29 06:42:45;;;;;;;0.98;0.98;;;;;;;0.22;100.00;100456.98;1785841;80;21146;-50
2020/12/29 06:45:13;;;;;;;0.10;0.10;;;;;;;0.22;100.00;100444.89;1785718;78;21154;-51
2020/12/29 06:47:44;;;;;;;0.75;0.75;;;;;;;0.22;100.00;100446.23;1785746;80;21648;-50
2020/12/29 06:50:26;;;;;;;1.10;0.68;;;;;;;0.22;100.00;100450.27;1785893;78;21102;-49
2020/12/29 06:53:03;;;;;;;0.20;0.20;;;;;;;0.28;100.00;100448.09;1847650;76;29396;-50
2020/12/29 06:55:42;;;;;;;0.88;0.88;;;;;;;0.24;100.00;100467.01;1793526;78;21114;-50
2020/12/29 06:58:10;;;;;;;1.35;0.35;;;;;;;0.25;100.00;100455.24;1781402;80;21580;-50
2020/12/29 07:00:37;;;;;;;0.10;0.10;;;;;;;0.25;100.00;100455.24;1785693;78;21149;-49
2020/12/29 07:03:05;;;;;;;1.82;0.93;;;;;;;0.28;100.00;100452.65;1785755;80;21581;-50
2020/12/29 07:05:36;;;;;;;0.75;0.75;;;;;;;0.29;100.00;100451.08;1785788;78;21137;-50
2020/12/29 07:08:05;;;;;;;1.02;0.65;;;;;;;0.30;100.00;100451.92;1785780;80;21133;-51
2020/12/29 07:10:46;;;;;;;0.00;0.00;;;;;;;0.30;100.00;100452.74;1785745;78;21149;-51
2020/12/29 07:13:17;;;;;;;0.20;0.20;;;;;;;0.31;100.00;100453.56;1785637;80;21216;-49
2020/12/29 07:15:53;;;;;;;0.00;0.00;;;;;;;0.31;100.00;100444.97;1785972;78;21161;-49
2020/12/29 07:18:25;;;;;;;0.68;0.68;;;;;;;0.31;100.00;100444.97;1785564;80;22173;-50
2020/12/29 07:20:54;;;;;;;2.17;0.65;;;;;;;0.35;100.00;100449.42;1785934;78;21146;-51
2020/12/29 07:23:25;;;;;;;0.20;0.20;;;;;;;0.35;100.00;100452.11;1785764;80;21687;-50
2020/12/29 07:25:53;;;;;;;1.12;1.12;;;;;;;0.35;100.00;100462.34;1785677;78;21197;-51
2020/12/29 07:28:26;;;;;;;0.15;0.15;;;;;;;0.36;100.00;100468.01;1785829;80;21106;-50
2020/12/29 07:30:55;;;;;;;0.30;0.30;;;;;;;0.38;100.00;100468.63;1755911;80;21089;-50
2020/12/29 07:33:26;;;;;;;0.98;0.98;;;;;;;0.39;100.00;100468.92;1785874;80;21098;-49
2020/12/29 07:36:02;;;;;;;0.00;0.00;;;;;;;0.46;100.00;100454.65;1844280;76;29054;-50
2020/12/29 07:38:29;;;;;;;0.57;0.57;;;;;;;0.39;100.00;100454.14;1815436;78;21135;-50
2020/12/29 07:40:57;;;;;;;1.25;1.17;;;;;;;0.40;100.00;100451.77;1758747;79;21126;-50
2020/12/29 07:43:24;;;;;;;1.50;0.68;;;;;;;0.40;100.00;100451.77;1815367;79;21561;-52
2020/12/29 07:45:51;;;;;;;0.50;0.50;;;;;;;0.41;100.00;100453.41;1815484;79;21170;-51
2020/12/29 07:48:19;;;;;;;0.17;0.17;;;;;;;0.42;100.00;100449.70;1815663;79;21096;-53
2020/12/29 07:50:47;;;;;;;0.15;0.15;;;;;;;0.42;100.00;100442.98;1815784;79;21138;-51
2020/12/29 07:53:14;;;;;;;0.00;0.00;;;;;;;0.43;100.00;100437.90;1810958;79;21143;-53
2020/12/29 07:55:42;;;;;;;0.33;0.33;;;;;;;0.45;100.00;100442.25;1808303;79;21155;-52
2020/12/29 07:58:10;;;;;;;0.47;0.45;;;;;;;0.46;100.00;100434.48;1774613;78;21135;-53
2020/12/29 08:00:39;;;;;;;1.77;0.95;;;;;;;0.46;100.00;100423.73;1771683;79;21127;-51
2020/12/29 08:03:07;;;;;;;5.58;2.30;;;;;;;0.48;100.00;100414.94;1760571;81;21580;-52
2020/12/29 08:05:35;;;;;;;0.35;0.35;;;;;;;0.49;100.00;100424.11;1737131;81;21170;-54
2020/12/29 08:08:10;;;;;;;0.90;0.90;;;;;;;0.52;100.00;100423.71;1747427;81;21202;-53
2020/12/29 08:10:41;;;;;;;0.53;0.53;;;;;;;0.54;100.00;100431.55;1743060;81;21607;-52
2020/12/29 08:13:12;;;;;;;0.15;0.15;;;;;;;0.56;100.00;100429.47;1750936;80;21138;-54
2020/12/29 08:15:42;;;;;;;3.33;0.53;;;;;;;0.57;100.00;100435.14;1744898;81;21423;-53
2020/12/29 08:18:16;;;;;;;0.55;0.53;;;;;;;0.62;100.00;100444.77;1736122;81;21146;-53
2020/12/29 08:20:52;;;;;;;3.77;0.50;;;;;;;0.64;100.00;100442.66;1731241;81;21502;-54
2020/12/29 08:23:21;;;;;;;2.55;1.80;;;;;;;0.67;100.00;100434.19;1742983;81;21127;-53
2020/12/29 08:27:20;;;;;;;1.15;1.05;;;;;;;0.73;100.00;100430.63;1778996;79;29065;-51
2020/12/29 08:29:47;;;;;;;1.75;1.65;;;;;;;0.71;100.00;100431.36;1757789;80;21111;-51
2020/12/29 08:32:17;;;;;;;0.20;0.20;;;;;;;0.73;100.00;100429.80;1715332;82;21127;-51
2020/12/29 08:34:45;;;;;;;0.30;0.30;;;;;;;0.74;100.00;100428.75;1742191;81;21163;-51
2020/12/29 08:37:18;;;;;;;0.68;0.68;;;;;;;0.75;100.00;100411.06;1742474;82;21585;-50
2020/12/29 08:40:13;;;;;;;6.70;0.88;;;;;;;0.77;100.00;100401.45;1714439;82;21478;-50
2020/12/29 08:42:42;;;;;;;2.10;1.02;;;;;;;0.78;100.00;100397.18;1739334;82;21134;-51
2020/12/29 08:45:10;;;;;;;2.60;0.50;;;;;;;0.82;100.00;100393.02;1691773;82;21218;-50
2020/12/29 08:47:38;;;;;;;0.93;0.93;;;;;;;0.83;100.00;100394.66;1742145;81;21115;-50
2020/12/29 08:50:27;;;;;;;0.50;0.50;;;;;;;0.85;100.00;100393.11;1713979;82;21116;-50
2020/12/29 08:53:05;;;;;;;1.92;1.52;;;;;;;0.86;100.00;100396.91;1633834;87;21219;-52
2020/12/29 08:55:40;;;;;;;0.70;0.70;;;;;;;0.94;100.00;100385.59;1864352;76;29853;-50
2020/12/29 08:58:07;;;;;;;0.20;0.20;;;;;;;0.90;100.00;100372.28;1848564;77;21552;-54
2020/12/29 09:00:43;;;;;;;0.55;0.55;;;;;;;0.92;100.00;100375.59;1836441;77;21094;-51
2020/12/29 09:06:03;;;;;;;2.02;1.20;;;;;;;0.99;100.00;100362.39;1860510;75;29093;-53
2020/12/29 09:08:31;;;;;;;1.25;0.70;;;;;;;0.96;100.00;100368.70;1831846;77;21427;-53
2020/12/29 09:11:12;;;;;;;1.22;0.70;;;;;;;0.97;100.00;100373.06;1831909;77;21115;-52
2020/12/29 09:14:04;;;;;;;0.40;0.40;;;;;;;0.98;100.00;100363.41;1825134;77;21158;-53
2020/12/29 09:16:32;;;;;;;0.57;0.57;;;;;;;0.99;100.00;100350.78;1827220;77;21182;-53
2020/12/29 09:18:59;;;;;;;2.25;0.68;;;;;;;1.00;100.00;100355.95;1829307;77;21592;-53
2020/12/29 09:21:27;;;;;;;0.53;0.53;;;;;;;1.03;100.00;100354.69;1833425;77;21119;-52
2020/12/29 09:24:01;;;;;;;4.28;1.27;;;;;;;1.03;100.00;100345.27;1832868;77;21296;-51
2020/12/29 09:26:29;;;;;;;2.20;1.42;;;;;;;1.06;100.00;100342.13;1842494;77;21138;-52
2020/12/29 09:28:57;;;;;;;1.65;1.07;;;;;;;1.07;100.00;100339.23;1825473;77;21501;-52
2020/12/29 09:31:28;;;;;;;0.82;0.82;;;;;;;1.10;100.00;100350.08;1838567;77;21612;-53
2020/12/29 09:33:58;;;;;;;0.50;0.50;;;;;;;1.11;100.00;100335.57;1830163;77;21139;-52
2020/12/29 09:36:26;;;;;;;3.83;0.42;;;;;;;1.13;100.00;100335.36;1791811;78;21534;-52
2020/12/29 09:38:54;;;;;;;1.10;1.10;;;;;;;1.15;100.00;100344.05;1754411;79;21129;-51
2020/12/29 09:41:22;;;;;;;1.65;1.55;;;;;;;1.16;100.00;100337.08;1791746;78;21151;-52
2020/12/29 09:43:50;;;;;;;1.92;0.95;;;;;;;1.18;100.00;100334.99;1777851;79;21668;-45
2020/12/29 09:46:17;;;;;;;0.90;0.72;;;;;;;1.19;100.00;100339.35;1781870;79;21466;-47
2020/12/29 09:48:45;;;;;;;2.05;1.62;;;;;;;1.21;100.00;100327.84;1769894;79;21178;-46
2020/12/29 09:51:13;;;;;;;1.25;0.95;;;;;;;1.24;100.00;100327.40;1766050;79;21138;-48
2020/12/29 09:53:40;;;;;;;0.82;0.82;;;;;;;1.25;100.00;100320.14;1782476;79;21134;-48
2020/12/29 09:56:08;;;;;;;1.50;1.45;;;;;;;1.25;100.00;100310.19;1788597;79;21584;-46
2020/12/29 09:58:35;;;;;;;0.50;0.50;;;;;;;1.26;100.00;100306.47;1783025;79;21566;-46
2020/12/29 10:01:03;;;;;;;0.30;0.30;;;;;;;1.27;100.00;100308.11;1794974;79;21134;-47
2020/12/29 10:03:32;;;;;;;0.82;0.42;;;;;;;1.29;100.00;100301.98;1764997;79;21145;-47
2020/12/29 10:05:59;;;;;;;0.30;0.30;;;;;;;1.32;100.00;100298.55;1781708;80;21531;-47
2020/12/29 10:08:27;;;;;;;2.00;1.90;;;;;;;1.33;100.00;100274.08;1753755;81;21110;-47
2020/12/29 10:10:55;;;;;;;0.53;0.42;;;;;;;1.36;100.00;100274.16;1772919;80;21527;-47
2020/12/29 10:13:22;;;;;;;0.50;0.50;;;;;;;1.37;100.00;100269.91;1803797;78;21489;-47
2020/12/29 10:15:51;;;;;;;0.55;0.55;;;;;;;1.39;100.00;100274.55;1783927;80;21566;-48
2020/12/29 10:18:18;;;;;;;0.68;0.42;;;;;;;1.39;100.00;100271.04;1820086;78;21150;-47
2020/12/29 10:20:46;;;;;;;0.70;0.50;;;;;;;1.41;100.00;100259.50;1789235;78;21158;-47
2020/12/29 10:23:14;;;;;;;1.15;1.15;;;;;;;1.41;100.00;100256.80;1815175;78;21116;-47
2020/12/29 10:25:42;;;;;;;0.82;0.82;;;;;;;1.43;100.00;100254.19;1798422;78;21191;-47
2020/12/29 10:28:09;;;;;;;0.20;0.20;;;;;;;1.45;100.00;100260.17;1768244;80;21151;-47
2020/12/29 10:30:37;;;;;;;2.45;1.25;;;;;;;1.46;100.00;100254.30;1758403;80;21092;-48
2020/12/29 10:33:04;;;;;;;0.25;0.25;;;;;;;1.47;100.00;100245.16;1756528;81;21149;-47
2020/12/29 10:35:33;;;;;;;4.22;1.10;;;;;;;1.47;100.00;100249.19;1767491;80;21108;-47
2020/12/29 10:38:01;;;;;;;1.77;1.67;;;;;;;1.49;100.00;100245.76;1784294;78;21127;-46
2020/12/29 10:40:28;;;;;;;0.42;0.42;;;;;;;1.49;100.00;100253.84;1794044;78;21142;-48
2020/12/29 10:42:56;;;;;;;2.35;2.15;;;;;;;1.51;100.00;100243.67;1790325;78;21163;-47
2020/12/29 10:45:23;;;;;;;1.35;0.93;;;;;;;1.53;100.00;100242.08;1791008;78;21107;-47
2020/12/29 10:47:51;;;;;;;0.42;0.42;;;;;;;1.54;100.00;100233.78;1786996;80;21114;-48
2020/12/29 10:50:18;;;;;;;4.47;0.47;;;;;;;1.58;100.00;100251.65;1803737;78;21115;-48
2020/12/29 10:52:46;;;;;;;1.35;1.17;;;;;;;1.59;100.00;100247.40;1781018;80;21126;-47
2020/12/29 10:55:13;;;;;;;0.10;0.10;;;;;;;1.62;100.00;100253.67;1800959;78;21142;-47
2020/12/29 10:57:40;;;;;;;0.88;0.88;;;;;;;1.66;100.00;100252.19;1785866;80;21103;-47
2020/12/29 11:00:08;;;;;;;0.90;0.90;;;;;;;1.69;100.00;100262.50;1787491;79;21126;-47
2020/12/29 11:02:36;;;;;;;0.40;0.40;;;;;;;1.71;100.00;100267.14;1772222;80;21154;-46
2020/12/29 11:05:04;;;;;;;0.90;0.90;;;;;;;1.73;100.00;100257.47;1778563;78;21447;-47
2020/12/29 11:07:31;;;;;;;1.50;1.40;;;;;;;1.75;100.00;100258.08;1782676;79;21102;-47
2020/12/29 11:10:00;;;;;;;2.02;1.57;;;;;;;1.77;100.00;100249.78;1783445;78;21107;-47
2020/12/29 11:12:28;;;;;;;0.72;0.60;;;;;;;1.79;100.00;100251.73;1763622;79;21585;-48
2020/12/29 11:14:56;;;;;;;1.98;1.87;;;;;;;1.82;100.00;100253.96;1773581;80;21111;-47
2020/12/29 11:17:23;;;;;;;0.95;0.95;;;;;;;1.85;100.00;100251.63;1787313;80;21175;-47
2020/12/29 11:19:53;;;;;;;0.65;0.65;;;;;;;1.90;100.00;100233.43;1787522;78;21134;-47
2020/12/29 11:22:20;;;;;;;1.00;1.00;;;;;;;1.94;100.00;100242.72;1787431;79;21664;-47
2020/12/29 11:24:48;;;;;;;0.78;0.30;;;;;;;1.98;100.00;100252.00;1787525;78;21151;-47
2020/12/29 11:27:16;;;;;;;0.72;0.72;;;;;;;2.02;100.00;100245.09;1785753;79;21550;-46
2020/12/29 11:29:43;;;;;;;1.30;0.82;;;;;;;2.05;100.00;100241.95;1794459;79;21245;-47
2020/12/29 11:32:11;;;;;;;1.82;1.72;;;;;;;2.07;100.00;100222.31;1773315;79;21825;-47
2020/12/29 11:34:39;;;;;;;1.70;1.60;;;;;;;2.08;100.00;100223.97;1762228;81;21150;-47